Mekhanik Kraskovsky — UFHZ — position and weather

sailwx.info

Track history (hours):
 
Tides and Currents Weather Stations Pressure Air Temp Water Temp Dewpoint Dewpoint Depression Visibility Wind Speed Wind Dir Waves Ship Positions

Mekhanik Kraskovsky

Last reported at 2017-Oct-20 05:00 UTC. Time now 2017-Oct-20 05:21 UTC.
Position N 70°28' E 019°30'.

Length 85 m; beam 15 m.

Type: Cargo ship. MMSI: 273116000.

Date/timePositionNaut miles runAvg speedWind from/ knotsBaromVisibWave heightAir tempDewpointWater temp
2017-Oct-20 05:00N 70°28' E 019°30'510.3
2017-Oct-20 04:30N 70°25' E 019°16'510.2
2017-Oct-20 04:00N 70°23' E 019°03'510.1
2017-Oct-20 03:30N 70°20' E 018°50'5 9.6
2017-Oct-20 03:00N 70°18' E 018°38'510.0
2017-Oct-20 02:30N 70°15' E 018°26'510.6
2017-Oct-20 02:00N 70°11' E 018°14'510.1
2017-Oct-20 01:30N 70°08' E 018°04'510.5
2017-Oct-20 01:00N 70°04' E 017°53'510.0
2017-Oct-20 00:30N 70°01' E 017°42'510.5
2017-Oct-20 00:00N 69°57' E 017°31'510.6
2017-Oct-19 23:30N 69°53' E 017°21'510.0
2017-Oct-19 23:00N 69°49' E 017°10'510.6
2017-Oct-19 22:29N 69°46' E 016°59'510.7
2017-Oct-19 22:00N 69°42' E 016°48'510.6
2017-Oct-19 21:29N 69°39' E 016°36'510.9
2017-Oct-19 21:00N 69°35' E 016°25'611.1
2017-Oct-19 20:30N 69°31' E 016°14'510.8
2017-Oct-19 20:00N 69°27' E 016°03'611.5
2017-Oct-19 19:30N 69°23' E 015°51'611.4
2017-Oct-19 19:00N 69°19' E 015°39'510.7
2017-Oct-19 18:30N 69°15' E 015°28'510.5
2017-Oct-19 17:59N 69°12' E 015°18'510.5
2017-Oct-19 17:30N 69°08' E 015°08'5 9.9
2017-Oct-19 17:00N 69°05' E 014°57'510.1
2017-Oct-19 16:30N 69°01' E 014°47'510.2
2017-Oct-19 16:00N 68°58' E 014°36'510.6
2017-Oct-19 15:30N 68°54' E 014°27'510.2
2017-Oct-19 15:00N 68°50' E 014°18'510.3
2017-Oct-19 14:30N 68°45' E 014°10'5 9.9
2017-Oct-19 14:00N 68°41' E 014°02'5 9.5
2017-Oct-19 13:30N 68°38' E 013°54'5 9.4
2017-Oct-19 13:00N 68°34' E 013°45'5 9.6
2017-Oct-19 12:30N 68°30' E 013°37'5 9.5
2017-Oct-19 12:00N 68°27' E 013°29'5 9.3
2017-Oct-19 11:30N 68°23' E 013°21'5 9.5
2017-Oct-19 10:59N 68°19' E 013°13'4 9.1
2017-Oct-19 10:30N 68°16' E 013°06'5 9.2
2017-Oct-19 10:00N 68°12' E 012°59'5 9.6
2017-Oct-19 09:30N 68°08' E 012°51'5 9.4
2017-Oct-19 09:00N 68°04' E 012°44'5 9.7
2017-Oct-19 08:30N 68°00' E 012°37'5 9.8
2017-Oct-19 07:59N 67°56' E 012°29'510.0
2017-Oct-19 07:30N 67°52' E 012°22'7210.3
2017-Oct-19 00:32N 66°42' E 011°36'110.9
2017-Oct-19 00:29N 66°42' E 011°36'810.9
2017-Oct-18 23:47N 66°34' E 011°37'611.2
2017-Oct-18 23:13N 66°28' E 011°37'210.9
2017-Oct-18 23:00N 66°26' E 011°36'5 9.0
2017-Oct-18 22:30N 66°22' E 011°44'5 9.7
2017-Oct-18 22:00N 66°20' E 011°55'5 9.7
2017-Oct-18 21:30N 66°18' E 012°06'5 9.5
2017-Oct-18 21:00N 66°17' E 012°17'5 9.7
2017-Oct-18 20:30N 66°15' E 012°29'5 9.8
2017-Oct-18 20:00N 66°13' E 012°40'510.0
2017-Oct-18 19:30N 66°10' E 012°49'511.0
2017-Oct-18 19:00N 66°10' E 013°03'611.9
2017-Oct-18 18:30N 66°13' E 013°15'611.2
2017-Oct-18 18:00N 66°15' E 013°29'611.1
2017-Oct-18 17:29N 66°15' E 013°43'510.7
2017-Oct-18 17:00N 66°16' E 013°56'510.0
2017-Oct-18 16:30N 66°18' E 014°07'0 0.3
2017-Oct-18 16:00N 66°18' E 014°07'0 0.0
2017-Oct-18 15:30N 66°18' E 014°07'0 0.0
2017-Oct-18 15:00N 66°18' E 014°07'0 0.0
2017-Oct-18 14:00N 66°18' E 014°07'0 0.0
2017-Oct-18 13:30N 66°18' E 014°07'0 0.0
2017-Oct-18 13:00N 66°18' E 014°07'0 0.0
2017-Oct-18 12:30N 66°18' E 014°07'0 0.0
2017-Oct-18 12:00N 66°18' E 014°07'0 0.0
2017-Oct-18 11:29N 66°18' E 014°07'0 0.0
2017-Oct-18 10:59N 66°18' E 014°07'0 0.0
2017-Oct-18 10:29N 66°18' E 014°07'0 0.0
2017-Oct-18 09:59N 66°18' E 014°07'0 0.0
2017-Oct-18 09:29N 66°18' E 014°07'0 0.0
2017-Oct-18 08:59N 66°18' E 014°07'0 0.0
2017-Oct-18 08:29N 66°18' E 014°07'0 0.0
2017-Oct-18 07:59N 66°18' E 014°07'0 0.0
2017-Oct-18 07:29N 66°18' E 014°07'0 0.0
2017-Oct-18 06:59N 66°18' E 014°07'0 0.0
2017-Oct-18 06:29N 66°18' E 014°07'0 0.0
2017-Oct-18 05:59N 66°18' E 014°07'0 0.0
2017-Oct-18 05:29N 66°18' E 014°07'0 0.0
2017-Oct-18 04:59N 66°18' E 014°07'0 0.0
2017-Oct-18 04:29N 66°18' E 014°07'0 0.0
2017-Oct-18 03:59N 66°18' E 014°07'0 0.0
2017-Oct-18 03:29N 66°18' E 014°07'0 0.0
2017-Oct-18 02:59N 66°18' E 014°07'0 0.0
2017-Oct-18 02:29N 66°18' E 014°07'0 0.0
2017-Oct-18 01:59N 66°18' E 014°07'0 0.0
2017-Oct-18 01:29N 66°18' E 014°07'0 0.0
2017-Oct-18 00:59N 66°18' E 014°07'0 0.0
2017-Oct-18 00:29N 66°18' E 014°07'0 0.0
2017-Oct-17 23:59N 66°18' E 014°07'0 0.0
2017-Oct-17 23:29N 66°18' E 014°07'0 0.1
2017-Oct-17 22:59N 66°18' E 014°07'0 0.0
2017-Oct-17 22:29N 66°18' E 014°07'0 0.0
2017-Oct-17 21:59N 66°18' E 014°07'0 0.0
2017-Oct-17 21:29N 66°18' E 014°07'0 0.0
2017-Oct-17 20:59N 66°18' E 014°07'0 0.0
2017-Oct-17 20:29N 66°18' E 014°07'0 0.0
2017-Oct-17 19:59N 66°18' E 014°07'0 0.0
2017-Oct-17 19:29N 66°18' E 014°07'0 0.0
2017-Oct-17 18:59N 66°18' E 014°07'0 0.0
2017-Oct-17 18:29N 66°18' E 014°07'0 0.0
2017-Oct-17 17:59N 66°18' E 014°07'0 0.0
2017-Oct-17 17:29N 66°18' E 014°07'0 0.0
2017-Oct-17 16:59N 66°18' E 014°07'0 0.0
2017-Oct-17 16:29N 66°18' E 014°07'0 0.0
2017-Oct-17 15:59N 66°18' E 014°07'0 0.0
2017-Oct-17 15:29N 66°18' E 014°07'0 0.0
2017-Oct-17 14:59N 66°18' E 014°07'0 0.0
2017-Oct-17 14:29N 66°18' E 014°07'0 0.0
2017-Oct-17 13:59N 66°18' E 014°07'0 0.0
2017-Oct-17 13:29N 66°18' E 014°07'0 0.0
2017-Oct-17 12:59N 66°18' E 014°07'0 0.0
2017-Oct-17 12:29N 66°18' E 014°07'0 0.0
2017-Oct-17 11:59N 66°18' E 014°07'0 0.0
2017-Oct-17 11:29N 66°18' E 014°07'0 0.0
2017-Oct-17 10:59N 66°18' E 014°07'0 0.0
2017-Oct-17 10:29N 66°18' E 014°07'0 0.0
2017-Oct-17 09:59N 66°18' E 014°07'0 0.0
2017-Oct-17 09:29N 66°18' E 014°07'0 0.0
2017-Oct-17 08:59N 66°18' E 014°07'0 0.0
2017-Oct-17 08:29N 66°18' E 014°07'0 0.0
2017-Oct-17 07:59N 66°18' E 014°07'0 0.0
2017-Oct-17 07:29N 66°18' E 014°07'0 0.0
2017-Oct-17 06:59N 66°18' E 014°07'0 0.0
2017-Oct-17 06:29N 66°18' E 014°07'0 0.0
2017-Oct-17 05:59N 66°18' E 014°07'0 0.0
2017-Oct-17 05:29N 66°18' E 014°07'0 0.0
2017-Oct-17 05:00N 66°18' E 014°07'0 0.9
2017-Oct-17 04:30N 66°19' E 014°06'1 2.6
2017-Oct-17 04:00N 66°20' E 014°08'0 0.0
2017-Oct-17 03:30N 66°20' E 014°08'0 0.0
2017-Oct-17 02:58N 66°20' E 014°08'0 0.0
2017-Oct-17 02:28N 66°20' E 014°08'0 0.0
2017-Oct-17 01:58N 66°20' E 014°08'0 0.0
2017-Oct-17 01:28N 66°20' E 014°08'0 0.0
2017-Oct-17 00:58N 66°20' E 014°08'0 0.0
2017-Oct-17 00:28N 66°20' E 014°08'0 0.0
2017-Oct-16 23:58N 66°20' E 014°08'0 0.0
2017-Oct-16 23:28N 66°20' E 014°08'0 0.0
2017-Oct-16 22:58N 66°20' E 014°08'0 0.0
2017-Oct-16 22:28N 66°20' E 014°08'0 0.0
2017-Oct-16 21:58N 66°20' E 014°08'0 0.0
2017-Oct-16 21:28N 66°20' E 014°08'0 0.0
2017-Oct-16 20:58N 66°20' E 014°08'0 0.0
2017-Oct-16 20:28N 66°20' E 014°08'0 0.0
2017-Oct-16 19:58N 66°20' E 014°08'0 0.0
2017-Oct-16 19:28N 66°20' E 014°08'0 0.0
2017-Oct-16 18:58N 66°20' E 014°08'0 0.0
2017-Oct-16 18:28N 66°20' E 014°08'0 0.0
2017-Oct-16 17:58N 66°20' E 014°08'0 0.0
2017-Oct-16 17:28N 66°20' E 014°08'0 0.0
2017-Oct-16 16:58N 66°20' E 014°08'0 0.0
2017-Oct-16 16:28N 66°20' E 014°08'0 0.0
2017-Oct-16 15:58N 66°20' E 014°08'0 0.0
2017-Oct-16 15:28N 66°20' E 014°08'0 0.0
2017-Oct-16 14:58N 66°20' E 014°08'0 0.0
2017-Oct-16 14:28N 66°20' E 014°08'0 0.0
2017-Oct-16 13:28N 66°20' E 014°08'0 0.0
2017-Oct-16 12:58N 66°20' E 014°08'0 0.0
2017-Oct-16 12:28N 66°20' E 014°08'0 0.0
2017-Oct-16 11:58N 66°20' E 014°08'0 0.0
2017-Oct-16 11:28N 66°20' E 014°08'0 0.0
2017-Oct-16 10:58N 66°20' E 014°08'0 0.0
2017-Oct-16 10:28N 66°20' E 014°08'0 0.0
2017-Oct-16 09:58N 66°20' E 014°08'0 0.0
2017-Oct-16 09:28N 66°20' E 014°08'0 0.0
2017-Oct-16 08:58N 66°20' E 014°08'0 0.0
2017-Oct-16 08:28N 66°20' E 014°08'0 0.0
2017-Oct-16 07:58N 66°20' E 014°08'0 0.0
2017-Oct-16 07:28N 66°20' E 014°08'0 0.0
2017-Oct-16 06:58N 66°20' E 014°08'0 0.0
2017-Oct-16 06:28N 66°20' E 014°08'0 0.0
2017-Oct-16 05:58N 66°20' E 014°08'0 0.0
2017-Oct-16 05:28N 66°20' E 014°08'0 0.0
2017-Oct-16 04:58N 66°20' E 014°08'0 0.0
2017-Oct-16 04:28N 66°20' E 014°08'0 0.0
2017-Oct-16 03:58N 66°20' E 014°08'0 0.0
2017-Oct-16 03:28N 66°20' E 014°08'0 0.0
2017-Oct-16 02:58N 66°20' E 014°08'0 0.0
2017-Oct-16 02:28N 66°20' E 014°08'0 0.0
2017-Oct-16 01:58N 66°20' E 014°08'0 0.0
2017-Oct-16 01:28N 66°20' E 014°08'0 0.0
2017-Oct-16 00:58N 66°20' E 014°08'0 0.0
2017-Oct-16 00:28N 66°20' E 014°08'0 0.0
2017-Oct-15 23:58N 66°20' E 014°08'0 0.0
2017-Oct-15 23:28N 66°20' E 014°08'0 0.0
2017-Oct-15 22:58N 66°20' E 014°08'0 0.0
2017-Oct-15 22:28N 66°20' E 014°08'0 0.0
2017-Oct-15 21:58N 66°20' E 014°08'0 0.0
2017-Oct-15 21:28N 66°20' E 014°08'0 0.0
2017-Oct-15 20:58N 66°20' E 014°08'0 0.0
2017-Oct-15 20:28N 66°20' E 014°08'0 0.0
2017-Oct-15 19:58N 66°20' E 014°08'0 0.0
2017-Oct-15 19:28N 66°20' E 014°08'0 0.0
2017-Oct-15 18:58N 66°20' E 014°08'0 0.0
2017-Oct-15 18:28N 66°20' E 014°08'0 0.0
2017-Oct-15 17:58N 66°20' E 014°08'0 0.0
2017-Oct-15 17:28N 66°20' E 014°08'0 0.0
2017-Oct-15 16:58N 66°20' E 014°08'0 0.0
2017-Oct-15 16:28N 66°20' E 014°08'0 0.0
2017-Oct-15 15:58N 66°20' E 014°08'0 0.0
2017-Oct-15 15:28N 66°20' E 014°08'0 0.0
2017-Oct-15 14:58N 66°20' E 014°08'0 0.0
2017-Oct-15 13:58N 66°20' E 014°08'0 0.0
2017-Oct-15 13:28N 66°20' E 014°08'0 0.0
2017-Oct-15 12:58N 66°20' E 014°08'0 0.0
2017-Oct-15 12:28N 66°20' E 014°08'0 0.0
2017-Oct-15 11:58N 66°20' E 014°08'0 0.0
2017-Oct-15 11:28N 66°20' E 014°08'0 0.0
2017-Oct-15 10:58N 66°20' E 014°08'0 0.0
2017-Oct-15 10:28N 66°20' E 014°08'0 0.0
2017-Oct-15 09:58N 66°20' E 014°08'0 0.0
2017-Oct-15 09:28N 66°20' E 014°08'0 0.0
2017-Oct-15 08:58N 66°20' E 014°08'0 0.0
2017-Oct-15 08:28N 66°20' E 014°08'0 0.0
2017-Oct-15 07:58N 66°20' E 014°08'0 0.0
2017-Oct-15 07:28N 66°20' E 014°08'0 0.0
2017-Oct-15 06:58N 66°20' E 014°08'0 0.0
2017-Oct-15 06:28N 66°20' E 014°08'0 0.0
2017-Oct-15 05:58N 66°20' E 014°08'0 0.0
2017-Oct-15 05:28N 66°20' E 014°08'0 0.0
2017-Oct-15 04:58N 66°20' E 014°08'0 0.0
2017-Oct-15 04:28N 66°20' E 014°08'0 0.0
2017-Oct-15 03:58N 66°20' E 014°08'0 0.0
2017-Oct-15 03:28N 66°20' E 014°08'0 0.0
2017-Oct-15 02:58N 66°20' E 014°08'0 0.0
2017-Oct-15 02:28N 66°20' E 014°08'0 0.0
2017-Oct-15 01:58N 66°20' E 014°08'0 0.0
2017-Oct-15 01:28N 66°20' E 014°08'0 0.0
2017-Oct-15 00:58N 66°20' E 014°08'0 0.0
2017-Oct-15 00:28N 66°20' E 014°08'0 0.0
2017-Oct-14 23:58N 66°20' E 014°08'0 0.0
2017-Oct-14 23:28N 66°20' E 014°08'0 0.0
2017-Oct-14 22:58N 66°20' E 014°08'0 0.0
2017-Oct-14 22:28N 66°20' E 014°08'0 0.0
2017-Oct-14 22:01N 66°20' E 014°08'0 0.0
2017-Oct-14 21:28N 66°20' E 014°08'0 0.0
2017-Oct-14 21:01N 66°20' E 014°08'0 0.0
2017-Oct-14 20:31N 66°20' E 014°08'0 0.0
2017-Oct-14 20:01N 66°20' E 014°08'0 0.0
2017-Oct-14 19:31N 66°20' E 014°08'0 0.0
2017-Oct-14 19:01N 66°20' E 014°08'0 0.0
2017-Oct-14 18:31N 66°20' E 014°08'0 0.0
2017-Oct-14 18:01N 66°20' E 014°08'0 0.0
2017-Oct-14 17:30N 66°20' E 014°08'0 0.0
2017-Oct-14 17:00N 66°20' E 014°08'0 0.0
2017-Oct-14 16:30N 66°20' E 014°08'0 0.0
2017-Oct-14 16:00N 66°20' E 014°08'0 0.0
2017-Oct-14 15:30N 66°20' E 014°08'0 0.0
2017-Oct-14 15:00N 66°20' E 014°08'0 0.0
2017-Oct-14 14:30N 66°20' E 014°08'0 0.0
2017-Oct-14 14:00N 66°20' E 014°08'0 0.0
2017-Oct-14 13:30N 66°20' E 014°08'0 0.0
2017-Oct-14 13:00N 66°20' E 014°08'0 0.0
2017-Oct-14 12:30N 66°20' E 014°08'0 0.0
2017-Oct-14 12:00N 66°20' E 014°08'0 0.0
2017-Oct-14 11:30N 66°20' E 014°08'0 0.0
2017-Oct-14 11:00N 66°20' E 014°08'0 0.0
2017-Oct-14 10:30N 66°20' E 014°08'0 0.0
2017-Oct-14 10:00N 66°20' E 014°08'0 0.0
2017-Oct-14 09:30N 66°20' E 014°08'0 0.0
2017-Oct-14 09:00N 66°20' E 014°08'0 0.0
2017-Oct-14 08:30N 66°20' E 014°08'0 0.0
2017-Oct-14 08:00N 66°20' E 014°08'0 0.0
2017-Oct-14 07:30N 66°20' E 014°08'0 0.0
2017-Oct-14 07:00N 66°20' E 014°08'0 0.0
2017-Oct-14 06:30N 66°20' E 014°08'0 0.0
2017-Oct-14 06:00N 66°20' E 014°08'0 0.0
2017-Oct-14 05:30N 66°20' E 014°08'0 0.0
2017-Oct-14 05:00N 66°20' E 014°08'0 0.0
2017-Oct-14 04:30N 66°20' E 014°08'0 0.0
2017-Oct-14 04:00N 66°20' E 014°08'0 0.0
2017-Oct-14 03:30N 66°20' E 014°08'0 0.0
2017-Oct-14 03:00N 66°20' E 014°08'0 0.0
2017-Oct-14 02:30N 66°20' E 014°08'0 0.0
2017-Oct-14 02:00N 66°20' E 014°08'0 0.0
2017-Oct-14 01:30N 66°20' E 014°08'0 0.0
2017-Oct-14 01:00N 66°20' E 014°08'0 0.0
2017-Oct-14 00:30N 66°20' E 014°08'0 0.0
2017-Oct-14 00:00N 66°20' E 014°08'0 0.0
2017-Oct-13 23:30N 66°20' E 014°08'0 0.0
2017-Oct-13 23:00N 66°20' E 014°08'0 0.0
2017-Oct-13 22:30N 66°20' E 014°08'1 1.7
2017-Oct-13 22:00N 66°19' E 014°06'4 8.4
2017-Oct-13 21:30N 66°17' E 013°58'510.2
2017-Oct-13 21:00N 66°15' E 013°46'5 9.6
2017-Oct-13 20:29N 66°15' E 013°34'5 9.7
2017-Oct-13 20:00N 66°14' E 013°22'4 8.6
2017-Oct-13 19:30N 66°12' E 013°13'4 8.8
2017-Oct-13 19:00N 66°10' E 013°03'4 8.7
2017-Oct-13 18:30N 66°10' E 012°52'4 8.8
2017-Oct-13 18:00N 66°12' E 012°44'4 8.6
2017-Oct-13 17:30N 66°15' E 012°37'3 6.7
2017-Oct-13 17:01N 66°15' E 012°29'4 8.5
2017-Oct-13 16:31N 66°17' E 012°19'4 8.2
2017-Oct-13 15:59N 66°17' E 012°08'4 7.5
2017-Oct-13 15:30N 66°16' E 011°59'3 6.4
2017-Oct-13 15:00N 66°15' E 011°51'55 8.7
2017-Oct-13 08:38N 65°27' E 010°46'111.9
2017-Oct-13 08:30N 65°26' E 010°45'611.8
2017-Oct-13 08:00N 65°20' E 010°39'10610.9
2017-Oct-12 22:13N 63°58' E 008°03'311.8
2017-Oct-12 21:58N 63°55' E 007°59'511.4
2017-Oct-12 21:30N 63°51' E 007°51'610.8
2017-Oct-12 21:00N 63°47' E 007°43'510.5
2017-Oct-12 20:30N 63°43' E 007°36'511.0
2017-Oct-12 20:00N 63°39' E 007°28'611.2
2017-Oct-12 19:30N 63°35' E 007°20'610.9
2017-Oct-12 19:00N 63°31' E 007°12'510.3
2017-Oct-12 18:30N 63°27' E 007°04'510.3
2017-Oct-12 18:00N 63°22' E 006°57'510.4
2017-Oct-12 17:30N 63°19' E 006°50'11 9.9
2017-Oct-12 16:24N 63°10' E 006°34'4 9.3
2017-Oct-12 16:01N 63°08' E 006°29'5 9.5
2017-Oct-12 15:30N 63°04' E 006°22'510.0
2017-Oct-12 15:00N 63°00' E 006°14'611.5
2017-Oct-12 14:31N 62°56' E 006°07'611.2
2017-Oct-12 14:00N 62°51' E 005°59'510.2
2017-Oct-12 13:30N 62°47' E 005°52'5 9.7
2017-Oct-12 13:00N 62°43' E 005°46'5 9.6
2017-Oct-12 12:30N 62°40' E 005°39'510.0
2017-Oct-12 12:00N 62°36' E 005°33'510.4
2017-Oct-12 11:30N 62°32' E 005°25'610.9
2017-Oct-12 11:00N 62°27' E 005°18'510.9
2017-Oct-12 10:30N 62°23' E 005°11'510.5
2017-Oct-12 10:00N 62°19' E 005°04'510.2
2017-Oct-12 09:30N 62°15' E 004°57'5 9.9
2017-Oct-12 09:00N 62°11' E 004°51'510.5
2017-Oct-12 08:30N 62°07' E 004°44'511.0
2017-Oct-12 08:00N 62°03' E 004°37'611.5
2017-Oct-12 07:30N 61°58' E 004°30'31 9.1
2017-Oct-12 04:07N 61°27' E 004°20'111.0
2017-Oct-12 04:00N 61°26' E 004°21'611.4
2017-Oct-12 03:30N 61°21' E 004°22'510.6
2017-Oct-12 03:00N 61°15' E 004°22'510.1
2017-Oct-12 02:29N 61°10' E 004°21'510.2
2017-Oct-12 01:59N 61°05' E 004°20'510.3
2017-Oct-12 01:30N 61°00' E 004°18'510.2
2017-Oct-12 00:59N 60°55' E 004°17'510.4
2017-Oct-12 00:30N 60°50' E 004°19'510.1
2017-Oct-12 00:01N 60°45' E 004°20'510.1
2017-Oct-11 23:30N 60°40' E 004°21'510.1
2017-Oct-11 23:00N 60°35' E 004°22'80 3.5
2017-Oct-10 23:59N 59°26' E 005°45'0 0.0
2017-Oct-10 23:29N 59°26' E 005°45'0 0.0
2017-Oct-10 22:59N 59°26' E 005°45'0 0.0
2017-Oct-10 22:29N 59°26' E 005°45'0 0.0
2017-Oct-10 21:59N 59°26' E 005°45'0 0.0
2017-Oct-10 21:29N 59°26' E 005°45'0 0.0
2017-Oct-10 20:59N 59°26' E 005°45'0 0.0
2017-Oct-10 20:29N 59°26' E 005°45'0 0.0
2017-Oct-10 19:59N 59°26' E 005°45'0 0.0
2017-Oct-10 19:29N 59°26' E 005°45'0 0.0
2017-Oct-10 18:59N 59°26' E 005°45'0 0.0
2017-Oct-10 18:29N 59°26' E 005°45'0 0.0
2017-Oct-10 17:59N 59°26' E 005°45'0 0.0
2017-Oct-10 17:29N 59°26' E 005°45'0 0.0
2017-Oct-10 16:59N 59°26' E 005°45'0 0.0
2017-Oct-10 16:29N 59°26' E 005°45'0 0.0
2017-Oct-10 15:59N 59°26' E 005°45'0 0.0
2017-Oct-10 15:29N 59°26' E 005°45'0 0.0
2017-Oct-10 14:59N 59°26' E 005°45'0 0.0
2017-Oct-10 13:59N 59°26' E 005°45'0 0.0
2017-Oct-10 13:29N 59°26' E 005°45'0 0.0
2017-Oct-10 12:59N 59°26' E 005°45'0 0.0
2017-Oct-10 12:29N 59°26' E 005°45'0 0.0
2017-Oct-10 11:59N 59°26' E 005°45'0 0.0
2017-Oct-10 11:29N 59°26' E 005°45'0 0.0
2017-Oct-10 10:59N 59°26' E 005°45'0 0.0
2017-Oct-10 10:29N 59°26' E 005°45'0 0.0
2017-Oct-10 09:59N 59°26' E 005°45'0 0.0
2017-Oct-10 09:29N 59°26' E 005°45'0 0.0
2017-Oct-10 08:59N 59°26' E 005°45'0 0.0
2017-Oct-10 08:29N 59°26' E 005°45'0 0.0
2017-Oct-10 07:57N 59°26' E 005°45'0 0.0
2017-Oct-10 07:29N 59°26' E 005°45'0 0.0
2017-Oct-10 06:59N 59°26' E 005°45'0 0.0
2017-Oct-10 06:29N 59°26' E 005°45'0 0.0
2017-Oct-10 05:59N 59°26' E 005°45'0 0.0
2017-Oct-10 05:29N 59°26' E 005°45'  
Track history (hours):
 
Tides and Currents Weather Stations Pressure Air Temp Water Temp Dewpoint Dewpoint Depression Visibility Wind Speed Wind Dir Waves Ship Positions

Mekhanik Kraskovsky

Last reported at 2017-Oct-20 05:00 UTC. Time now 2017-Oct-20 05:21 UTC.
Position N 70°28' E 019°30'.

Length 85 m; beam 15 m.

Type: Cargo ship. MMSI: 273116000.

Date/timePositionNaut miles runAvg speedWind from/ knotsBaromVisibWave heightAir tempDewpointWater temp
2017-Oct-20 05:00N 70°28' E 019°30'510.3
2017-Oct-20 04:30N 70°25' E 019°16'510.2
2017-Oct-20 04:00N 70°23' E 019°03'510.1
2017-Oct-20 03:30N 70°20' E 018°50'5 9.6
2017-Oct-20 03:00N 70°18' E 018°38'510.0
2017-Oct-20 02:30N 70°15' E 018°26'510.6
2017-Oct-20 02:00N 70°11' E 018°14'510.1
2017-Oct-20 01:30N 70°08' E 018°04'510.5
2017-Oct-20 01:00N 70°04' E 017°53'510.0
2017-Oct-20 00:30N 70°01' E 017°42'510.5
2017-Oct-20 00:00N 69°57' E 017°31'510.6
2017-Oct-19 23:30N 69°53' E 017°21'510.0
2017-Oct-19 23:00N 69°49' E 017°10'510.6
2017-Oct-19 22:29N 69°46' E 016°59'510.7
2017-Oct-19 22:00N 69°42' E 016°48'510.6
2017-Oct-19 21:29N 69°39' E 016°36'510.9
2017-Oct-19 21:00N 69°35' E 016°25'611.1
2017-Oct-19 20:30N 69°31' E 016°14'510.8
2017-Oct-19 20:00N 69°27' E 016°03'611.5
2017-Oct-19 19:30N 69°23' E 015°51'611.4
2017-Oct-19 19:00N 69°19' E 015°39'510.7
2017-Oct-19 18:30N 69°15' E 015°28'510.5
2017-Oct-19 17:59N 69°12' E 015°18'510.5
2017-Oct-19 17:30N 69°08' E 015°08'5 9.9
2017-Oct-19 17:00N 69°05' E 014°57'510.1
2017-Oct-19 16:30N 69°01' E 014°47'510.2
2017-Oct-19 16:00N 68°58' E 014°36'510.6
2017-Oct-19 15:30N 68°54' E 014°27'510.2
2017-Oct-19 15:00N 68°50' E 014°18'510.3
2017-Oct-19 14:30N 68°45' E 014°10'5 9.9
2017-Oct-19 14:00N 68°41' E 014°02'5 9.5
2017-Oct-19 13:30N 68°38' E 013°54'5 9.4
2017-Oct-19 13:00N 68°34' E 013°45'5 9.6
2017-Oct-19 12:30N 68°30' E 013°37'5 9.5
2017-Oct-19 12:00N 68°27' E 013°29'5 9.3
2017-Oct-19 11:30N 68°23' E 013°21'5 9.5
2017-Oct-19 10:59N 68°19' E 013°13'4 9.1
2017-Oct-19 10:30N 68°16' E 013°06'5 9.2
2017-Oct-19 10:00N 68°12' E 012°59'5 9.6
2017-Oct-19 09:30N 68°08' E 012°51'5 9.4
2017-Oct-19 09:00N 68°04' E 012°44'5 9.7
2017-Oct-19 08:30N 68°00' E 012°37'5 9.8
2017-Oct-19 07:59N 67°56' E 012°29'510.0
2017-Oct-19 07:30N 67°52' E 012°22'7210.3
2017-Oct-19 00:32N 66°42' E 011°36'110.9
2017-Oct-19 00:29N 66°42' E 011°36'810.9
2017-Oct-18 23:47N 66°34' E 011°37'611.2
2017-Oct-18 23:13N 66°28' E 011°37'210.9
2017-Oct-18 23:00N 66°26' E 011°36'5 9.0
2017-Oct-18 22:30N 66°22' E 011°44'5 9.7
2017-Oct-18 22:00N 66°20' E 011°55'5 9.7
2017-Oct-18 21:30N 66°18' E 012°06'5 9.5
2017-Oct-18 21:00N 66°17' E 012°17'5 9.7
2017-Oct-18 20:30N 66°15' E 012°29'5 9.8
2017-Oct-18 20:00N 66°13' E 012°40'510.0
2017-Oct-18 19:30N 66°10' E 012°49'511.0
2017-Oct-18 19:00N 66°10' E 013°03'611.9
2017-Oct-18 18:30N 66°13' E 013°15'611.2
2017-Oct-18 18:00N 66°15' E 013°29'611.1
2017-Oct-18 17:29N 66°15' E 013°43'510.7
2017-Oct-18 17:00N 66°16' E 013°56'510.0
2017-Oct-18 16:30N 66°18' E 014°07'0 0.3
2017-Oct-18 16:00N 66°18' E 014°07'0 0.0
2017-Oct-18 15:30N 66°18' E 014°07'0 0.0
2017-Oct-18 15:00N 66°18' E 014°07'0 0.0
2017-Oct-18 14:00N 66°18' E 014°07'0 0.0
2017-Oct-18 13:30N 66°18' E 014°07'0 0.0
2017-Oct-18 13:00N 66°18' E 014°07'0 0.0
2017-Oct-18 12:30N 66°18' E 014°07'0 0.0
2017-Oct-18 12:00N 66°18' E 014°07'0 0.0
2017-Oct-18 11:29N 66°18' E 014°07'0 0.0
2017-Oct-18 10:59N 66°18' E 014°07'0 0.0
2017-Oct-18 10:29N 66°18' E 014°07'0 0.0
2017-Oct-18 09:59N 66°18' E 014°07'0 0.0
2017-Oct-18 09:29N 66°18' E 014°07'0 0.0
2017-Oct-18 08:59N 66°18' E 014°07'0 0.0
2017-Oct-18 08:29N 66°18' E 014°07'0 0.0
2017-Oct-18 07:59N 66°18' E 014°07'0 0.0
2017-Oct-18 07:29N 66°18' E 014°07'0 0.0
2017-Oct-18 06:59N 66°18' E 014°07'0 0.0
2017-Oct-18 06:29N 66°18' E 014°07'0 0.0
2017-Oct-18 05:59N 66°18' E 014°07'0 0.0
2017-Oct-18 05:29N 66°18' E 014°07'0 0.0
2017-Oct-18 04:59N 66°18' E 014°07'0 0.0
2017-Oct-18 04:29N 66°18' E 014°07'0 0.0
2017-Oct-18 03:59N 66°18' E 014°07'0 0.0
2017-Oct-18 03:29N 66°18' E 014°07'0 0.0
2017-Oct-18 02:59N 66°18' E 014°07'0 0.0
2017-Oct-18 02:29N 66°18' E 014°07'0 0.0
2017-Oct-18 01:59N 66°18' E 014°07'0 0.0
2017-Oct-18 01:29N 66°18' E 014°07'0 0.0
2017-Oct-18 00:59N 66°18' E 014°07'0 0.0
2017-Oct-18 00:29N 66°18' E 014°07'0 0.0
2017-Oct-17 23:59N 66°18' E 014°07'0 0.0
2017-Oct-17 23:29N 66°18' E 014°07'0 0.1
2017-Oct-17 22:59N 66°18' E 014°07'0 0.0
2017-Oct-17 22:29N 66°18' E 014°07'0 0.0
2017-Oct-17 21:59N 66°18' E 014°07'0 0.0
2017-Oct-17 21:29N 66°18' E 014°07'0 0.0
2017-Oct-17 20:59N 66°18' E 014°07'0 0.0
2017-Oct-17 20:29N 66°18' E 014°07'0 0.0
2017-Oct-17 19:59N 66°18' E 014°07'0 0.0
2017-Oct-17 19:29N 66°18' E 014°07'0 0.0
2017-Oct-17 18:59N 66°18' E 014°07'0 0.0
2017-Oct-17 18:29N 66°18' E 014°07'0 0.0
2017-Oct-17 17:59N 66°18' E 014°07'0 0.0
2017-Oct-17 17:29N 66°18' E 014°07'0 0.0
2017-Oct-17 16:59N 66°18' E 014°07'0 0.0
2017-Oct-17 16:29N 66°18' E 014°07'0 0.0
2017-Oct-17 15:59N 66°18' E 014°07'0 0.0
2017-Oct-17 15:29N 66°18' E 014°07'0 0.0
2017-Oct-17 14:59N 66°18' E 014°07'0 0.0
2017-Oct-17 14:29N 66°18' E 014°07'0 0.0
2017-Oct-17 13:59N 66°18' E 014°07'0 0.0
2017-Oct-17 13:29N 66°18' E 014°07'0 0.0
2017-Oct-17 12:59N 66°18' E 014°07'0 0.0
2017-Oct-17 12:29N 66°18' E 014°07'0 0.0
2017-Oct-17 11:59N 66°18' E 014°07'0 0.0
2017-Oct-17 11:29N 66°18' E 014°07'0 0.0
2017-Oct-17 10:59N 66°18' E 014°07'0 0.0
2017-Oct-17 10:29N 66°18' E 014°07'0 0.0
2017-Oct-17 09:59N 66°18' E 014°07'0 0.0
2017-Oct-17 09:29N 66°18' E 014°07'0 0.0
2017-Oct-17 08:59N 66°18' E 014°07'0 0.0
2017-Oct-17 08:29N 66°18' E 014°07'0 0.0
2017-Oct-17 07:59N 66°18' E 014°07'0 0.0
2017-Oct-17 07:29N 66°18' E 014°07'0 0.0
2017-Oct-17 06:59N 66°18' E 014°07'0 0.0
2017-Oct-17 06:29N 66°18' E 014°07'0 0.0
2017-Oct-17 05:59N 66°18' E 014°07'0 0.0
2017-Oct-17 05:29N 66°18' E 014°07'0 0.0
2017-Oct-17 05:00N 66°18' E 014°07'0 0.9
2017-Oct-17 04:30N 66°19' E 014°06'1 2.6
2017-Oct-17 04:00N 66°20' E 014°08'0 0.0
2017-Oct-17 03:30N 66°20' E 014°08'0 0.0
2017-Oct-17 02:58N 66°20' E 014°08'0 0.0
2017-Oct-17 02:28N 66°20' E 014°08'0 0.0
2017-Oct-17 01:58N 66°20' E 014°08'0 0.0
2017-Oct-17 01:28N 66°20' E 014°08'0 0.0
2017-Oct-17 00:58N 66°20' E 014°08'0 0.0
2017-Oct-17 00:28N 66°20' E 014°08'0 0.0
2017-Oct-16 23:58N 66°20' E 014°08'0 0.0
2017-Oct-16 23:28N 66°20' E 014°08'0 0.0
2017-Oct-16 22:58N 66°20' E 014°08'0 0.0
2017-Oct-16 22:28N 66°20' E 014°08'0 0.0
2017-Oct-16 21:58N 66°20' E 014°08'0 0.0
2017-Oct-16 21:28N 66°20' E 014°08'0 0.0
2017-Oct-16 20:58N 66°20' E 014°08'0 0.0
2017-Oct-16 20:28N 66°20' E 014°08'0 0.0
2017-Oct-16 19:58N 66°20' E 014°08'0 0.0
2017-Oct-16 19:28N 66°20' E 014°08'0 0.0
2017-Oct-16 18:58N 66°20' E 014°08'0 0.0
2017-Oct-16 18:28N 66°20' E 014°08'0 0.0
2017-Oct-16 17:58N 66°20' E 014°08'0 0.0
2017-Oct-16 17:28N 66°20' E 014°08'0 0.0
2017-Oct-16 16:58N 66°20' E 014°08'0 0.0
2017-Oct-16 16:28N 66°20' E 014°08'0 0.0
2017-Oct-16 15:58N 66°20' E 014°08'0 0.0
2017-Oct-16 15:28N 66°20' E 014°08'0 0.0
2017-Oct-16 14:58N 66°20' E 014°08'0 0.0
2017-Oct-16 14:28N 66°20' E 014°08'0 0.0
2017-Oct-16 13:28N 66°20' E 014°08'0 0.0
2017-Oct-16 12:58N 66°20' E 014°08'0 0.0
2017-Oct-16 12:28N 66°20' E 014°08'0 0.0
2017-Oct-16 11:58N 66°20' E 014°08'0 0.0
2017-Oct-16 11:28N 66°20' E 014°08'0 0.0
2017-Oct-16 10:58N 66°20' E 014°08'0 0.0
2017-Oct-16 10:28N 66°20' E 014°08'0 0.0
2017-Oct-16 09:58N 66°20' E 014°08'0 0.0
2017-Oct-16 09:28N 66°20' E 014°08'0 0.0
2017-Oct-16 08:58N 66°20' E 014°08'0 0.0
2017-Oct-16 08:28N 66°20' E 014°08'0 0.0
2017-Oct-16 07:58N 66°20' E 014°08'0 0.0
2017-Oct-16 07:28N 66°20' E 014°08'0 0.0
2017-Oct-16 06:58N 66°20' E 014°08'0 0.0
2017-Oct-16 06:28N 66°20' E 014°08'0 0.0
2017-Oct-16 05:58N 66°20' E 014°08'0 0.0
2017-Oct-16 05:28N 66°20' E 014°08'0 0.0
2017-Oct-16 04:58N 66°20' E 014°08'0 0.0
2017-Oct-16 04:28N 66°20' E 014°08'0 0.0
2017-Oct-16 03:58N 66°20' E 014°08'0 0.0
2017-Oct-16 03:28N 66°20' E 014°08'0 0.0
2017-Oct-16 02:58N 66°20' E 014°08'0 0.0
2017-Oct-16 02:28N 66°20' E 014°08'0 0.0
2017-Oct-16 01:58N 66°20' E 014°08'0 0.0
2017-Oct-16 01:28N 66°20' E 014°08'0 0.0
2017-Oct-16 00:58N 66°20' E 014°08'0 0.0
2017-Oct-16 00:28N 66°20' E 014°08'0 0.0
2017-Oct-15 23:58N 66°20' E 014°08'0 0.0
2017-Oct-15 23:28N 66°20' E 014°08'0 0.0
2017-Oct-15 22:58N 66°20' E 014°08'0 0.0
2017-Oct-15 22:28N 66°20' E 014°08'0 0.0
2017-Oct-15 21:58N 66°20' E 014°08'0 0.0
2017-Oct-15 21:28N 66°20' E 014°08'0 0.0
2017-Oct-15 20:58N 66°20' E 014°08'0 0.0
2017-Oct-15 20:28N 66°20' E 014°08'0 0.0
2017-Oct-15 19:58N 66°20' E 014°08'0 0.0
2017-Oct-15 19:28N 66°20' E 014°08'0 0.0
2017-Oct-15 18:58N 66°20' E 014°08'0 0.0
2017-Oct-15 18:28N 66°20' E 014°08'0 0.0
2017-Oct-15 17:58N 66°20' E 014°08'0 0.0
2017-Oct-15 17:28N 66°20' E 014°08'0 0.0
2017-Oct-15 16:58N 66°20' E 014°08'0 0.0
2017-Oct-15 16:28N 66°20' E 014°08'0 0.0
2017-Oct-15 15:58N 66°20' E 014°08'0 0.0
2017-Oct-15 15:28N 66°20' E 014°08'0 0.0
2017-Oct-15 14:58N 66°20' E 014°08'0 0.0
2017-Oct-15 13:58N 66°20' E 014°08'0 0.0
2017-Oct-15 13:28N 66°20' E 014°08'0 0.0
2017-Oct-15 12:58N 66°20' E 014°08'0 0.0
2017-Oct-15 12:28N 66°20' E 014°08'0 0.0
2017-Oct-15 11:58N 66°20' E 014°08'0 0.0
2017-Oct-15 11:28N 66°20' E 014°08'0 0.0
2017-Oct-15 10:58N 66°20' E 014°08'0 0.0
2017-Oct-15 10:28N 66°20' E 014°08'0 0.0
2017-Oct-15 09:58N 66°20' E 014°08'0 0.0
2017-Oct-15 09:28N 66°20' E 014°08'0 0.0
2017-Oct-15 08:58N 66°20' E 014°08'0 0.0
2017-Oct-15 08:28N 66°20' E 014°08'0 0.0
2017-Oct-15 07:58N 66°20' E 014°08'0 0.0
2017-Oct-15 07:28N 66°20' E 014°08'0 0.0
2017-Oct-15 06:58N 66°20' E 014°08'0 0.0
2017-Oct-15 06:28N 66°20' E 014°08'0 0.0
2017-Oct-15 05:58N 66°20' E 014°08'0 0.0
2017-Oct-15 05:28N 66°20' E 014°08'0 0.0
2017-Oct-15 04:58N 66°20' E 014°08'0 0.0
2017-Oct-15 04:28N 66°20' E 014°08'0 0.0
2017-Oct-15 03:58N 66°20' E 014°08'0 0.0
2017-Oct-15 03:28N 66°20' E 014°08'0 0.0
2017-Oct-15 02:58N 66°20' E 014°08'0 0.0
2017-Oct-15 02:28N 66°20' E 014°08'0 0.0
2017-Oct-15 01:58N 66°20' E 014°08'0 0.0
2017-Oct-15 01:28N 66°20' E 014°08'0 0.0
2017-Oct-15 00:58N 66°20' E 014°08'0 0.0
2017-Oct-15 00:28N 66°20' E 014°08'0 0.0
2017-Oct-14 23:58N 66°20' E 014°08'0 0.0
2017-Oct-14 23:28N 66°20' E 014°08'0 0.0
2017-Oct-14 22:58N 66°20' E 014°08'0 0.0
2017-Oct-14 22:28N 66°20' E 014°08'0 0.0
2017-Oct-14 22:01N 66°20' E 014°08'0 0.0
2017-Oct-14 21:28N 66°20' E 014°08'0 0.0
2017-Oct-14 21:01N 66°20' E 014°08'0 0.0
2017-Oct-14 20:31N 66°20' E 014°08'0 0.0
2017-Oct-14 20:01N 66°20' E 014°08'0 0.0
2017-Oct-14 19:31N 66°20' E 014°08'0 0.0
2017-Oct-14 19:01N 66°20' E 014°08'0 0.0
2017-Oct-14 18:31N 66°20' E 014°08'0 0.0
2017-Oct-14 18:01N 66°20' E 014°08'0 0.0
2017-Oct-14 17:30N 66°20' E 014°08'0 0.0
2017-Oct-14 17:00N 66°20' E 014°08'0 0.0
2017-Oct-14 16:30N 66°20' E 014°08'0 0.0
2017-Oct-14 16:00N 66°20' E 014°08'0 0.0
2017-Oct-14 15:30N 66°20' E 014°08'0 0.0
2017-Oct-14 15:00N 66°20' E 014°08'0 0.0
2017-Oct-14 14:30N 66°20' E 014°08'0 0.0
2017-Oct-14 14:00N 66°20' E 014°08'0 0.0
2017-Oct-14 13:30N 66°20' E 014°08'0 0.0
2017-Oct-14 13:00N 66°20' E 014°08'0 0.0
2017-Oct-14 12:30N 66°20' E 014°08'0 0.0
2017-Oct-14 12:00N 66°20' E 014°08'0 0.0
2017-Oct-14 11:30N 66°20' E 014°08'0 0.0
2017-Oct-14 11:00N 66°20' E 014°08'0 0.0
2017-Oct-14 10:30N 66°20' E 014°08'0 0.0
2017-Oct-14 10:00N 66°20' E 014°08'0 0.0
2017-Oct-14 09:30N 66°20' E 014°08'0 0.0
2017-Oct-14 09:00N 66°20' E 014°08'0 0.0
2017-Oct-14 08:30N 66°20' E 014°08'0 0.0
2017-Oct-14 08:00N 66°20' E 014°08'0 0.0
2017-Oct-14 07:30N 66°20' E 014°08'0 0.0
2017-Oct-14 07:00N 66°20' E 014°08'0 0.0
2017-Oct-14 06:30N 66°20' E 014°08'0 0.0
2017-Oct-14 06:00N 66°20' E 014°08'0 0.0
2017-Oct-14 05:30N 66°20' E 014°08'0 0.0
2017-Oct-14 05:00N 66°20' E 014°08'0 0.0
2017-Oct-14 04:30N 66°20' E 014°08'0 0.0
2017-Oct-14 04:00N 66°20' E 014°08'0 0.0
2017-Oct-14 03:30N 66°20' E 014°08'0 0.0
2017-Oct-14 03:00N 66°20' E 014°08'0 0.0
2017-Oct-14 02:30N 66°20' E 014°08'0 0.0
2017-Oct-14 02:00N 66°20' E 014°08'0 0.0
2017-Oct-14 01:30N 66°20' E 014°08'0 0.0
2017-Oct-14 01:00N 66°20' E 014°08'0 0.0
2017-Oct-14 00:30N 66°20' E 014°08'0 0.0
2017-Oct-14 00:00N 66°20' E 014°08'0 0.0
2017-Oct-13 23:30N 66°20' E 014°08'0 0.0
2017-Oct-13 23:00N 66°20' E 014°08'0 0.0
2017-Oct-13 22:30N 66°20' E 014°08'1 1.7
2017-Oct-13 22:00N 66°19' E 014°06'4 8.4
2017-Oct-13 21:30N 66°17' E 013°58'510.2
2017-Oct-13 21:00N 66°15' E 013°46'5 9.6
2017-Oct-13 20:29N 66°15' E 013°34'5 9.7
2017-Oct-13 20:00N 66°14' E 013°22'4 8.6
2017-Oct-13 19:30N 66°12' E 013°13'4 8.8
2017-Oct-13 19:00N 66°10' E 013°03'4 8.7
2017-Oct-13 18:30N 66°10' E 012°52'4 8.8
2017-Oct-13 18:00N 66°12' E 012°44'4 8.6
2017-Oct-13 17:30N 66°15' E 012°37'3 6.7
2017-Oct-13 17:01N 66°15' E 012°29'4 8.5
2017-Oct-13 16:31N 66°17' E 012°19'4 8.2
2017-Oct-13 15:59N 66°17' E 012°08'4 7.5
2017-Oct-13 15:30N 66°16' E 011°59'3 6.4
2017-Oct-13 15:00N 66°15' E 011°51'55 8.7
2017-Oct-13 08:38N 65°27' E 010°46'111.9
2017-Oct-13 08:30N 65°26' E 010°45'611.8
2017-Oct-13 08:00N 65°20' E 010°39'10610.9
2017-Oct-12 22:13N 63°58' E 008°03'311.8
2017-Oct-12 21:58N 63°55' E 007°59'511.4
2017-Oct-12 21:30N 63°51' E 007°51'610.8
2017-Oct-12 21:00N 63°47' E 007°43'510.5
2017-Oct-12 20:30N 63°43' E 007°36'511.0
2017-Oct-12 20:00N 63°39' E 007°28'611.2
2017-Oct-12 19:30N 63°35' E 007°20'610.9
2017-Oct-12 19:00N 63°31' E 007°12'510.3
2017-Oct-12 18:30N 63°27' E 007°04'510.3
2017-Oct-12 18:00N 63°22' E 006°57'510.4
2017-Oct-12 17:30N 63°19' E 006°50'11 9.9
2017-Oct-12 16:24N 63°10' E 006°34'4 9.3
2017-Oct-12 16:01N 63°08' E 006°29'5 9.5
2017-Oct-12 15:30N 63°04' E 006°22'510.0
2017-Oct-12 15:00N 63°00' E 006°14'611.5
2017-Oct-12 14:31N 62°56' E 006°07'611.2
2017-Oct-12 14:00N 62°51' E 005°59'510.2
2017-Oct-12 13:30N 62°47' E 005°52'5 9.7
2017-Oct-12 13:00N 62°43' E 005°46'5 9.6
2017-Oct-12 12:30N 62°40' E 005°39'510.0
2017-Oct-12 12:00N 62°36' E 005°33'510.4
2017-Oct-12 11:30N 62°32' E 005°25'610.9
2017-Oct-12 11:00N 62°27' E 005°18'510.9
2017-Oct-12 10:30N 62°23' E 005°11'510.5
2017-Oct-12 10:00N 62°19' E 005°04'510.2
2017-Oct-12 09:30N 62°15' E 004°57'5 9.9
2017-Oct-12 09:00N 62°11' E 004°51'510.5
2017-Oct-12 08:30N 62°07' E 004°44'511.0
2017-Oct-12 08:00N 62°03' E 004°37'611.5
2017-Oct-12 07:30N 61°58' E 004°30'31 9.1
2017-Oct-12 04:07N 61°27' E 004°20'111.0
2017-Oct-12 04:00N 61°26' E 004°21'611.4
2017-Oct-12 03:30N 61°21' E 004°22'510.6
2017-Oct-12 03:00N 61°15' E 004°22'510.1
2017-Oct-12 02:29N 61°10' E 004°21'510.2
2017-Oct-12 01:59N 61°05' E 004°20'510.3
2017-Oct-12 01:30N 61°00' E 004°18'510.2
2017-Oct-12 00:59N 60°55' E 004°17'510.4
2017-Oct-12 00:30N 60°50' E 004°19'510.1
2017-Oct-12 00:01N 60°45' E 004°20'510.1
2017-Oct-11 23:30N 60°40' E 004°21'510.1
2017-Oct-11 23:00N 60°35' E 004°22'80 3.5
2017-Oct-10 23:59N 59°26' E 005°45'0 0.0
2017-Oct-10 23:29N 59°26' E 005°45'0 0.0
2017-Oct-10 22:59N 59°26' E 005°45'0 0.0
2017-Oct-10 22:29N 59°26' E 005°45'0 0.0
2017-Oct-10 21:59N 59°26' E 005°45'0 0.0
2017-Oct-10 21:29N 59°26' E 005°45'0 0.0
2017-Oct-10 20:59N 59°26' E 005°45'0 0.0
2017-Oct-10 20:29N 59°26' E 005°45'0 0.0
2017-Oct-10 19:59N 59°26' E 005°45'0 0.0
2017-Oct-10 19:29N 59°26' E 005°45'0 0.0
2017-Oct-10 18:59N 59°26' E 005°45'0 0.0
2017-Oct-10 18:29N 59°26' E 005°45'0 0.0
2017-Oct-10 17:59N 59°26' E 005°45'0 0.0
2017-Oct-10 17:29N 59°26' E 005°45'0 0.0
2017-Oct-10 16:59N 59°26' E 005°45'0 0.0
2017-Oct-10 16:29N 59°26' E 005°45'0 0.0
2017-Oct-10 15:59N 59°26' E 005°45'0 0.0
2017-Oct-10 15:29N 59°26' E 005°45'0 0.0
2017-Oct-10 14:59N 59°26' E 005°45'0 0.0
2017-Oct-10 13:59N 59°26' E 005°45'0 0.0
2017-Oct-10 13:29N 59°26' E 005°45'0 0.0
2017-Oct-10 12:59N 59°26' E 005°45'0 0.0
2017-Oct-10 12:29N 59°26' E 005°45'0 0.0
2017-Oct-10 11:59N 59°26' E 005°45'0 0.0
2017-Oct-10 11:29N 59°26' E 005°45'0 0.0
2017-Oct-10 10:59N 59°26' E 005°45'0 0.0
2017-Oct-10 10:29N 59°26' E 005°45'0 0.0
2017-Oct-10 09:59N 59°26' E 005°45'0 0.0
2017-Oct-10 09:29N 59°26' E 005°45'0 0.0
2017-Oct-10 08:59N 59°26' E 005°45'0 0.0
2017-Oct-10 08:29N 59°26' E 005°45'0 0.0
2017-Oct-10 07:57N 59°26' E 005°45'0 0.0
2017-Oct-10 07:29N 59°26' E 005°45'0 0.0
2017-Oct-10 06:59N 59°26' E 005°45'0 0.0
2017-Oct-10 06:29N 59°26' E 005°45'0 0.0
2017-Oct-10 05:59N 59°26' E 005°45'0 0.0
2017-Oct-10 05:29N 59°26' E 005°45'  

Dump ship's entire track history